createdAt,value
2018-04-26T00:01:30.904Z,8.90
2018-04-26T00:03:59.315Z,9.93
2018-04-26T00:06:28.353Z,9.70
2018-04-26T00:08:56.672Z,11.23
2018-04-26T00:11:25.073Z,10.90
2018-04-26T00:13:54.263Z,8.73
2018-04-26T00:16:23.664Z,9.10
2018-04-26T00:18:52.864Z,10.10
2018-04-26T00:21:21.323Z,14.52
2018-04-26T00:23:49.613Z,9.47
2018-04-26T00:26:18.118Z,10.50
2018-04-26T00:28:46.396Z,10.43
2018-04-26T00:31:16.640Z,13.23
2018-04-26T00:33:45.094Z,7.63
2018-04-26T00:36:14.194Z,10.73
2018-04-26T00:38:42.565Z,7.73
2018-04-26T00:41:11.624Z,6.63
2018-04-26T00:43:40.048Z,11.63
2018-04-26T00:46:08.388Z,11.97
2018-04-26T00:48:36.720Z,11.12
2018-04-26T00:51:05.150Z,10.07
2018-04-26T00:53:33.549Z,10.10
2018-04-26T00:56:02.690Z,13.77
2018-04-26T00:58:31.029Z,11.77
2018-04-26T01:01:00.156Z,11.03
2018-04-26T01:03:28.515Z,11.00
2018-04-26T01:05:56.848Z,9.57
2018-04-26T01:08:25.170Z,12.07
2018-04-26T01:10:53.554Z,16.30
2018-04-26T01:13:21.900Z,10.13
2018-04-26T01:15:51.050Z,10.93
2018-04-26T01:18:19.593Z,13.43
2018-04-26T01:20:47.939Z,21.03
2018-04-26T01:23:16.243Z,12.30
2018-04-26T01:25:45.564Z,11.25
2018-04-26T01:28:13.925Z,10.40
2018-04-26T01:30:43.216Z,10.88
2018-04-26T01:33:12.296Z,8.27
2018-04-26T01:35:40.592Z,14.53
2018-04-26T01:38:09.700Z,10.00
2018-04-26T01:40:39.085Z,12.57
2018-04-26T01:43:08.114Z,12.80
2018-04-26T01:45:37.051Z,12.47
2018-04-26T01:48:06.420Z,13.70
2018-04-26T01:50:34.751Z,13.67
2018-04-26T01:53:03.895Z,14.30
2018-04-26T01:55:32.328Z,8.87
2018-04-26T01:58:01.420Z,10.77
2018-04-26T02:00:30.520Z,13.13
2018-04-26T02:02:59.795Z,10.80
2018-04-26T02:05:28.167Z,11.12
2018-04-26T02:07:56.540Z,13.20
2018-04-26T02:10:24.824Z,13.13
2018-04-26T02:12:53.089Z,13.30
2018-04-26T02:15:23.619Z,9.40
2018-04-26T02:17:52.560Z,14.63
2018-04-26T02:20:21.879Z,15.53
2018-04-26T02:22:50.240Z,13.43
2018-04-26T02:25:18.711Z,14.97
2018-04-26T02:27:47.778Z,14.03
2018-04-26T02:30:16.400Z,15.80
2018-04-26T02:32:44.769Z,14.10
2018-04-26T02:35:13.860Z,14.70
2018-04-26T02:37:42.921Z,19.77
2018-04-26T02:40:11.454Z,9.07
2018-04-26T02:42:39.766Z,17.23
2018-04-26T02:45:08.064Z,11.18
2018-04-26T02:47:36.382Z,13.37
2018-04-26T02:50:04.811Z,16.02
2018-04-26T02:52:33.199Z,13.77
2018-04-26T02:55:01.633Z,13.30
2018-04-26T02:57:29.951Z,16.80
2018-04-26T02:59:58.281Z,16.73
2018-04-26T03:02:26.576Z,17.50
2018-04-26T03:04:54.934Z,16.03
2018-04-26T03:07:23.323Z,20.13
2018-04-26T03:09:51.588Z,16.87
2018-04-26T03:12:19.999Z,10.07
2018-04-26T03:14:48.306Z,15.00
2018-04-26T03:17:16.611Z,13.40
2018-04-26T03:19:45.113Z,18.25
2018-04-26T03:22:13.494Z,15.87
2018-04-26T03:24:41.780Z,15.03
2018-04-26T03:27:11.225Z,19.33
2018-04-26T03:29:40.339Z,17.70
2018-04-26T03:32:09.420Z,17.77
2018-04-26T03:34:37.740Z,12.77
2018-04-26T03:37:06.176Z,18.35
2018-04-26T03:39:35.235Z,15.73
2018-04-26T03:42:03.574Z,17.33
2018-04-26T03:44:31.840Z,18.17
2018-04-26T03:47:01.046Z,17.52
2018-04-26T03:49:29.565Z,14.60
2018-04-26T03:51:57.820Z,13.63
2018-04-26T03:54:26.539Z,14.53
2018-04-26T03:56:54.951Z,12.50
2018-04-26T03:59:23.254Z,14.13
2018-04-26T04:02:10.611Z,18.20
2018-04-26T04:04:56.758Z,19.63
2018-04-26T04:07:25.126Z,15.30
2018-04-26T04:09:55.030Z,15.10
2018-04-26T04:12:23.319Z,12.27
2018-04-26T04:14:52.505Z,16.33
2018-04-26T04:17:21.072Z,13.17
2018-04-26T04:19:49.479Z,16.00
2018-04-26T04:22:18.686Z,14.70
2018-04-26T04:24:47.761Z,17.60
2018-04-26T04:27:17.185Z,18.43
2018-04-26T04:29:45.520Z,15.80
2018-04-26T04:32:13.847Z,15.60
2018-04-26T04:34:42.279Z,19.67
2018-04-26T04:37:10.841Z,18.83
2018-04-26T04:39:39.137Z,15.93
2018-04-26T04:42:09.635Z,16.10
2018-04-26T04:44:37.948Z,16.60
2018-04-26T04:47:08.581Z,17.67
2018-04-26T04:49:36.875Z,25.97
2018-04-26T04:52:05.249Z,17.83
2018-04-26T04:54:33.600Z,17.33
2018-04-26T04:57:01.895Z,20.12
2018-04-26T04:59:31.734Z,17.43
2018-04-26T05:02:00.857Z,16.70
2018-04-26T05:04:29.970Z,16.25
2018-04-26T05:06:58.251Z,16.10
2018-04-26T05:09:26.595Z,20.07
2018-04-26T05:11:54.938Z,22.73
2018-04-26T05:14:24.161Z,22.45
2018-04-26T05:16:52.471Z,16.07
2018-04-26T05:19:20.769Z,16.23
2018-04-26T05:21:49.084Z,20.23
2018-04-26T05:24:19.340Z,19.80
2018-04-26T05:26:47.652Z,18.30
2018-04-26T05:29:15.956Z,9.77
2018-04-26T05:31:45.264Z,14.20
2018-04-26T05:34:13.557Z,10.60
2018-04-26T05:36:41.845Z,7.33
2018-04-26T05:39:10.361Z,12.20
2018-04-26T05:41:39.537Z,10.63
2018-04-26T05:44:07.820Z,13.13
2018-04-26T05:46:36.121Z,9.15
2018-04-26T05:49:04.428Z,14.40
2018-04-26T05:51:32.722Z,12.65
2018-04-26T05:54:01.025Z,15.07
2018-04-26T05:56:29.422Z,12.90
2018-04-26T05:58:57.771Z,7.78
2018-04-26T06:01:26.074Z,7.63
2018-04-26T06:03:54.444Z,5.30
2018-04-26T06:36:23.444Z,8.33
2018-04-26T06:38:52.512Z,9.57
2018-04-26T06:41:20.792Z,9.07
2018-04-26T06:43:49.096Z,9.73
2018-04-26T06:46:17.645Z,7.93
2018-04-26T06:48:45.964Z,6.83
2018-04-26T06:51:14.317Z,6.17
2018-04-26T06:53:42.617Z,9.03
2018-04-26T06:56:11.030Z,6.60
2018-04-26T06:58:39.376Z,6.87
2018-04-26T07:01:08.607Z,6.37
2018-04-26T07:03:36.903Z,6.13
2018-04-26T07:06:05.223Z,4.83
2018-04-26T07:08:33.608Z,14.70
2018-04-26T07:11:02.708Z,9.82
2018-04-26T07:13:31.992Z,3.00
2018-04-26T07:16:00.547Z,5.53
2018-04-26T07:18:29.036Z,3.63
2018-04-26T07:20:57.325Z,6.27
2018-04-26T07:23:25.632Z,5.10
2018-04-26T07:25:54.717Z,5.10
2018-04-26T07:28:23.041Z,8.13
2018-04-26T07:30:51.504Z,5.83
2018-04-26T07:33:19.842Z,9.73
2018-04-26T07:35:48.261Z,10.85
2018-04-26T07:38:16.650Z,8.53
2018-04-26T07:40:44.936Z,18.03
2018-04-26T07:43:13.283Z,14.73
2018-04-26T07:45:41.683Z,13.18
2018-04-26T07:48:09.951Z,9.40
2018-04-26T07:50:38.297Z,14.83
2018-04-26T07:53:07.424Z,8.17
2018-04-26T07:55:36.508Z,14.57
2018-04-26T07:58:06.706Z,10.20
2018-04-26T08:00:35.026Z,14.10
2018-04-26T08:03:03.522Z,15.63
2018-04-26T08:05:31.910Z,14.47
2018-04-26T08:08:00.322Z,12.43
2018-04-26T08:10:28.827Z,10.83
2018-04-26T08:12:57.198Z,11.73
2018-04-26T08:15:26.288Z,12.32
2018-04-26T08:17:55.428Z,14.83
2018-04-26T08:20:23.772Z,13.88
2018-04-26T08:22:52.232Z,19.47
2018-04-26T08:25:21.376Z,16.27
2018-04-26T08:27:49.691Z,12.57
2018-04-26T08:30:18.082Z,14.90
2018-04-26T08:32:46.749Z,16.33
2018-04-26T08:35:16.381Z,13.95
2018-04-26T08:37:46.640Z,18.87
2018-04-26T08:40:15.069Z,16.60
2018-04-26T08:42:43.379Z,15.70
2018-04-26T08:45:11.746Z,19.77
2018-04-26T08:47:40.136Z,14.55
2018-04-26T08:50:08.425Z,17.23
2018-04-26T08:52:36.791Z,19.70
2018-04-26T08:55:05.237Z,17.20
2018-04-26T08:57:33.552Z,18.77
2018-04-26T09:00:01.863Z,17.83
2018-04-26T09:02:30.332Z,18.70
2018-04-26T09:04:58.786Z,19.90
2018-04-26T09:07:27.088Z,20.47
2018-04-26T09:09:57.412Z,15.80
2018-04-26T09:12:27.697Z,17.07
2018-04-26T09:14:56.848Z,14.17
2018-04-26T09:17:25.175Z,14.83
2018-04-26T09:19:54.248Z,15.00
2018-04-26T09:22:23.396Z,17.57
2018-04-26T09:24:51.666Z,12.13
2018-04-26T09:27:19.943Z,12.83
2018-04-26T09:29:48.396Z,10.57
2018-04-26T09:32:16.744Z,14.87
2018-04-26T09:34:45.077Z,13.40
2018-04-26T09:37:13.521Z,15.88
2018-04-26T09:39:41.830Z,14.20
2018-04-26T09:42:10.342Z,12.33
2018-04-26T09:44:38.730Z,9.48
2018-04-26T09:47:08.491Z,12.60
2018-04-26T09:49:36.827Z,16.43
2018-04-26T09:52:06.163Z,12.07
2018-04-26T09:54:34.461Z,17.20
2018-04-26T09:57:02.794Z,15.90
2018-04-26T09:59:31.968Z,15.57
2018-04-26T10:02:03.213Z,17.33
2018-04-26T10:04:37.229Z,16.67
2018-04-26T10:07:05.550Z,19.70
2018-04-26T10:09:33.837Z,15.00
2018-04-26T10:12:02.165Z,16.03
2018-04-26T10:14:30.472Z,16.08
2018-04-26T10:16:59.797Z,17.53
2018-04-26T10:19:28.106Z,11.65
2018-04-26T10:21:56.521Z,17.73
2018-04-26T10:24:25.590Z,14.27
2018-04-26T10:26:54.077Z,16.87
2018-04-26T10:29:22.379Z,17.33
2018-04-26T10:31:51.476Z,17.67
2018-04-26T10:34:20.671Z,9.43
2018-04-26T10:36:49.321Z,11.00
2018-04-26T10:39:17.625Z,10.67
2018-04-26T10:41:46.925Z,11.03
2018-04-26T10:44:16.202Z,7.47
2018-04-26T10:46:44.495Z,9.50
2018-04-26T10:49:13.565Z,10.40
2018-04-26T10:51:41.896Z,9.60
2018-04-26T10:54:11.669Z,7.72
2018-04-26T10:56:40.062Z,7.30
2018-04-26T10:59:09.130Z,12.60
2018-04-26T11:01:37.497Z,8.80
2018-04-26T11:04:06.817Z,11.80
2018-04-26T11:06:35.080Z,12.63
2018-04-26T11:09:03.396Z,15.37
2018-04-26T11:11:33.609Z,15.07
2018-04-26T11:14:01.980Z,15.27
2018-04-26T11:16:30.436Z,12.80
2018-04-26T11:18:58.762Z,12.73
2018-04-26T11:21:27.069Z,12.13
2018-04-26T11:23:55.710Z,11.73
2018-04-26T11:26:24.974Z,13.77
2018-04-26T11:28:53.306Z,10.23
2018-04-26T11:31:21.771Z,8.00
2018-04-26T11:33:50.838Z,10.55
2018-04-26T11:36:19.159Z,13.73
2018-04-26T11:38:47.528Z,13.55
2018-04-26T11:41:15.979Z,11.73
2018-04-26T11:43:44.552Z,13.13
2018-04-26T11:46:13.889Z,10.95
2018-04-26T11:48:42.983Z,11.27
2018-04-26T11:51:12.326Z,14.07
2018-04-26T11:53:40.692Z,9.80
2018-04-26T11:56:08.997Z,9.47
2018-04-26T11:58:37.368Z,10.83
2018-04-26T12:01:05.680Z,13.48
2018-04-26T12:03:34.813Z,9.30
2018-04-26T12:06:03.152Z,9.33
2018-04-26T12:08:32.278Z,12.90
2018-04-26T12:11:00.598Z,8.65
2018-04-26T12:13:29.034Z,11.03
2018-04-26T12:15:57.717Z,13.65
2018-04-26T12:18:26.032Z,9.20
2018-04-26T12:20:54.335Z,11.47
2018-04-26T12:23:22.679Z,9.50
2018-04-26T12:25:51.040Z,10.93
2018-04-26T12:28:19.561Z,11.70
2018-04-26T12:30:48.043Z,8.77
2018-04-26T12:33:16.391Z,8.07
2018-04-26T12:35:44.839Z,9.77
2018-04-26T12:38:13.144Z,12.57
2018-04-26T12:40:41.631Z,9.33
2018-04-26T12:43:10.051Z,7.70
2018-04-26T12:45:38.403Z,10.40
2018-04-26T12:48:06.969Z,11.10
2018-04-26T12:50:35.314Z,9.50
2018-04-26T12:53:04.815Z,11.70
2018-04-26T12:55:35.183Z,9.33
2018-04-26T12:58:03.722Z,10.97
2018-04-26T13:00:31.997Z,9.30
2018-04-26T13:03:01.180Z,11.17
2018-04-26T13:05:30.413Z,9.68
2018-04-26T13:07:58.836Z,7.90
2018-04-26T13:10:27.156Z,10.90
2018-04-26T13:12:55.526Z,12.03
2018-04-26T13:15:24.710Z,9.40
2018-04-26T13:17:53.313Z,6.47
2018-04-26T13:20:21.731Z,10.17
2018-04-26T13:22:50.274Z,9.27
2018-04-26T13:25:18.638Z,9.43
2018-04-26T13:27:47.140Z,12.87
2018-04-26T13:30:15.838Z,8.10
2018-04-26T13:32:44.967Z,9.37
2018-04-26T13:35:13.284Z,9.83
2018-04-26T13:37:42.417Z,9.23
2018-04-26T13:40:10.985Z,10.37
2018-04-26T13:42:39.481Z,8.10
2018-04-26T13:45:08.034Z,5.55
2018-04-26T13:47:36.376Z,7.37
2018-04-26T13:50:04.781Z,7.97
2018-04-26T13:52:33.986Z,7.37
2018-04-26T13:55:03.208Z,9.90
2018-04-26T13:57:31.563Z,9.33
2018-04-26T14:00:00.176Z,10.95
2018-04-26T14:02:28.784Z,7.83
2018-04-26T14:04:57.156Z,6.17
2018-04-26T14:07:26.508Z,10.38
2018-04-26T14:09:54.858Z,9.30
2018-04-26T14:12:23.376Z,6.63
2018-04-26T14:14:51.713Z,4.50
2018-04-26T14:17:21.248Z,3.93
2018-04-26T14:19:50.376Z,4.13
2018-04-26T14:22:18.806Z,5.43
2018-04-26T14:24:47.215Z,4.10
2018-04-26T14:27:15.581Z,3.97
2018-04-26T14:29:44.713Z,5.70
2018-04-26T14:32:13.278Z,4.47
2018-04-26T14:34:41.597Z,5.10
2018-04-26T14:37:11.022Z,5.57
2018-04-26T14:39:39.442Z,7.83
2018-04-26T14:42:07.746Z,5.63
2018-04-26T14:44:36.086Z,7.30
2018-04-26T14:47:04.861Z,9.27
2018-04-26T14:49:34.258Z,9.47
2018-04-26T14:52:03.571Z,7.83
2018-04-26T14:54:31.953Z,13.73
2018-04-26T14:57:00.490Z,11.03
2018-04-26T14:59:29.728Z,8.43
2018-04-26T15:01:58.357Z,9.68
2018-04-26T15:04:26.781Z,9.50
2018-04-26T15:06:55.128Z,8.70
2018-04-26T15:09:23.503Z,7.07
2018-04-26T15:11:51.928Z,7.82
2018-04-26T15:14:21.092Z,8.27
2018-04-26T15:16:49.547Z,9.37
2018-04-26T15:19:18.969Z,8.55
2018-04-26T15:21:47.345Z,8.93
2018-04-26T15:24:15.747Z,9.33
2018-04-26T15:26:44.914Z,9.97
2018-04-26T15:29:13.207Z,9.97
2018-04-26T15:31:41.816Z,8.63
2018-04-26T15:34:11.144Z,6.30
2018-04-26T15:36:39.507Z,6.43
2018-04-26T15:39:08.009Z,6.97
2018-04-26T15:41:36.329Z,7.80
2018-04-26T15:44:04.671Z,8.03
2018-04-26T15:46:33.014Z,6.45
2018-04-26T15:49:02.105Z,8.15
2018-04-26T15:51:30.664Z,9.73
2018-04-26T15:54:16.878Z,9.67
2018-04-26T15:57:03.808Z,6.13
2018-04-26T15:59:49.987Z,5.93
2018-04-26T16:02:57.694Z,5.23
2018-04-26T16:05:44.598Z,4.03
2018-04-26T16:08:36.773Z,4.97
2018-04-26T16:11:24.475Z,4.53
2018-04-26T16:14:05.827Z,5.73
2018-04-26T16:20:14.433Z,7.73
2018-04-26T16:23:05.687Z,8.80
2018-04-26T16:25:51.755Z,8.80
2018-04-26T16:28:43.443Z,9.23
2018-04-26T16:31:36.265Z,6.90
2018-04-26T16:34:22.077Z,4.43
2018-04-26T16:37:08.368Z,3.53
2018-04-26T16:39:36.871Z,4.17
2018-04-26T16:42:05.322Z,3.87
2018-04-26T16:44:34.462Z,3.72
2018-04-26T16:47:02.884Z,4.03
2018-04-26T16:49:31.306Z,3.58
2018-04-26T16:51:59.774Z,6.85
2018-04-26T16:54:28.300Z,5.97
2018-04-26T16:56:56.764Z,7.50
2018-04-26T16:59:25.106Z,8.35
2018-04-26T17:01:53.440Z,9.47
2018-04-26T17:04:23.528Z,5.72
2018-04-26T17:06:53.836Z,9.02
2018-04-26T17:09:22.915Z,2.87
2018-04-26T17:11:53.130Z,6.73
2018-04-26T17:14:23.440Z,6.57
2018-04-26T17:16:52.950Z,6.53
2018-04-26T17:19:23.252Z,4.97
2018-04-26T17:21:51.633Z,8.17
2018-04-26T17:24:20.005Z,10.13
2018-04-26T17:26:48.410Z,6.87
2018-04-26T17:29:16.794Z,5.47
2018-04-26T17:31:46.004Z,4.87
2018-04-26T17:34:15.090Z,6.73
2018-04-26T17:36:44.335Z,4.00
2018-04-26T17:39:12.932Z,9.48
2018-04-26T17:41:41.311Z,5.37
2018-04-26T17:44:10.184Z,5.53
2018-04-26T17:46:38.541Z,5.25
2018-04-26T17:49:07.013Z,7.67
2018-04-26T17:51:35.570Z,5.70
2018-04-26T17:54:04.100Z,6.73
2018-04-26T17:56:33.351Z,5.93
2018-04-26T17:59:04.391Z,7.33
2018-04-26T18:01:32.790Z,6.33
2018-04-26T18:04:02.080Z,7.20
2018-04-26T18:06:30.448Z,6.60
2018-04-26T18:08:58.881Z,7.03
2018-04-26T18:11:27.228Z,4.47
2018-04-26T18:13:56.614Z,4.97
2018-04-26T18:16:24.953Z,4.73
2018-04-26T18:18:53.300Z,5.20
2018-04-26T18:21:21.715Z,7.50
2018-04-26T18:23:50.253Z,6.03
2018-04-26T18:26:19.227Z,7.20
2018-04-26T18:28:47.694Z,5.40
2018-04-26T18:31:16.174Z,4.90
2018-04-26T18:33:46.915Z,7.80
2018-04-26T18:36:15.338Z,5.70
2018-04-26T18:38:43.948Z,4.60
2018-04-26T18:41:12.354Z,6.87
2018-04-26T18:43:40.706Z,7.03
2018-04-26T18:46:09.045Z,8.60
2018-04-26T18:48:37.409Z,5.65
2018-04-26T18:51:06.549Z,7.97
2018-04-26T18:53:35.055Z,9.38
2018-04-26T18:56:03.723Z,10.60
2018-04-26T18:58:32.110Z,11.70
2018-04-26T19:01:00.439Z,10.27
2018-04-26T19:03:28.799Z,12.82
2018-04-26T19:05:57.960Z,52.90
2018-04-26T19:08:26.349Z,16.07
2018-04-26T19:10:54.718Z,4.77
2018-04-26T19:13:23.356Z,7.20
2018-04-26T19:15:51.774Z,9.60
2018-04-26T19:18:20.122Z,8.20
2018-04-26T19:20:48.459Z,9.17
2018-04-26T19:23:17.279Z,10.20
2018-04-26T19:25:45.651Z,8.40
2018-04-26T19:28:15.000Z,11.07
2018-04-26T19:30:43.305Z,11.50
2018-04-26T19:33:11.748Z,10.37
2018-04-26T19:35:40.139Z,7.13
2018-04-26T19:38:08.640Z,6.77
2018-04-26T19:40:37.205Z,7.23
2018-04-26T19:43:06.187Z,9.05
2018-04-26T19:45:34.540Z,9.23
2018-04-26T19:48:02.909Z,11.20
2018-04-26T19:50:31.980Z,14.13
2018-04-26T19:53:01.091Z,7.80
2018-04-26T19:55:30.320Z,8.00
2018-04-26T19:57:58.845Z,6.65
2018-04-26T20:00:28.052Z,6.80
2018-04-26T20:02:57.170Z,10.57
2018-04-26T20:05:25.500Z,6.50
2018-04-26T20:07:53.942Z,5.73
2018-04-26T20:10:22.408Z,10.63
2018-04-26T20:12:50.867Z,10.13
2018-04-26T20:15:20.203Z,7.70
2018-04-26T20:17:48.687Z,53.78
2018-04-26T20:20:17.083Z,47.08
2018-04-26T20:22:45.746Z,15.00
2018-04-26T20:25:14.968Z,10.43
2018-04-26T20:27:43.414Z,12.70
2018-04-26T20:30:11.865Z,7.10
2018-04-26T20:32:40.374Z,8.60
2018-04-26T20:35:08.725Z,7.87
2018-04-26T20:37:37.135Z,8.13
2018-04-26T20:40:05.641Z,9.80
2018-04-26T20:42:33.988Z,8.17
2018-04-26T20:45:02.501Z,8.63
2018-04-26T20:47:30.985Z,5.40
2018-04-26T20:50:00.232Z,9.00
2018-04-26T20:52:29.332Z,11.13
2018-04-26T20:54:58.863Z,8.44
2018-04-26T20:57:27.204Z,7.40
2018-04-26T20:59:56.326Z,8.97
2018-04-26T21:02:24.688Z,9.07
2018-04-26T21:04:53.987Z,8.03
2018-04-26T21:07:23.087Z,7.57
2018-04-26T21:09:51.426Z,8.97
2018-04-26T21:12:19.757Z,8.97
2018-04-26T21:14:48.129Z,9.52
2018-04-26T21:17:16.560Z,6.78
2018-04-26T21:22:19.397Z,8.90
2018-04-26T21:24:47.883Z,6.00
2018-04-26T21:27:16.382Z,7.13
2018-04-26T21:29:44.702Z,7.97
2018-04-26T21:32:13.169Z,7.93
2018-04-26T21:34:41.520Z,9.70
2018-04-26T21:37:09.858Z,6.20
2018-04-26T21:39:38.276Z,7.93
2018-04-26T21:42:06.567Z,6.77
2018-04-26T21:44:34.935Z,7.53
2018-04-26T21:47:03.296Z,7.63
2018-04-26T21:49:31.003Z,6.57
2018-04-26T21:52:04.976Z,8.52
2018-04-26T21:54:38.820Z,23.53
2018-04-26T21:57:12.727Z,35.67
2018-04-26T21:59:46.605Z,13.60
2018-04-26T22:02:20.442Z,8.50
2018-04-26T22:04:55.531Z,7.47
2018-04-26T22:07:23.881Z,10.50
2018-04-26T22:09:52.172Z,9.33
2018-04-26T22:12:22.371Z,13.23
2018-04-26T22:14:50.734Z,9.88
2018-04-26T22:17:19.041Z,9.83
2018-04-26T22:19:48.107Z,9.47
2018-04-26T22:22:16.547Z,7.20
2018-04-26T22:24:44.874Z,9.93
2018-04-26T22:27:13.460Z,5.90
2018-04-26T22:29:42.830Z,6.50
2018-04-26T22:32:11.165Z,5.90
2018-04-26T22:34:39.604Z,6.10
2018-04-26T22:37:07.890Z,6.47
2018-04-26T22:39:36.346Z,10.60
2018-04-26T22:42:04.679Z,6.70
2018-04-26T22:44:32.974Z,6.60
2018-04-26T22:47:01.267Z,6.43
2018-04-26T22:49:29.879Z,6.17
2018-04-26T22:51:58.356Z,7.20
2018-04-26T22:54:26.669Z,5.00
2018-04-26T22:56:55.700Z,9.17
2018-04-26T22:59:23.981Z,6.87
2018-04-26T23:01:52.295Z,7.33
2018-04-26T23:04:20.581Z,3.97
2018-04-26T23:06:49.799Z,5.47
2018-04-26T23:09:18.071Z,5.03
2018-04-26T23:11:47.140Z,5.43
2018-04-26T23:14:15.436Z,5.13
2018-04-26T23:16:44.489Z,15.57
2018-04-26T23:19:12.829Z,25.20
2018-04-26T23:21:41.179Z,13.03
2018-04-26T23:24:11.465Z,6.30
2018-04-26T23:26:39.811Z,7.17
2018-04-26T23:29:08.146Z,4.50
2018-04-26T23:31:36.515Z,7.07
2018-04-26T23:34:04.855Z,3.93
2018-04-26T23:36:33.140Z,5.73
2018-04-26T23:39:01.566Z,8.13
2018-04-26T23:41:30.701Z,11.77
2018-04-26T23:43:59.023Z,13.60
2018-04-26T23:46:27.322Z,6.83
2018-04-26T23:48:56.379Z,9.18
2018-04-26T23:51:24.749Z,9.77
2018-04-26T23:53:53.046Z,7.13
2018-04-26T23:56:21.407Z,8.07
2018-04-26T23:58:49.674Z,9.10
